createdAt,value
2018-08-24T00:02:23.813Z,5.60
2018-08-24T00:04:51.999Z,6.60
2018-08-24T00:07:20.283Z,8.50
2018-08-24T00:09:50.931Z,8.85
2018-08-24T00:12:19.261Z,8.80
2018-08-24T00:14:47.567Z,8.60
2018-08-24T00:17:21.125Z,9.63
2018-08-24T00:19:49.365Z,8.95
2018-08-24T00:22:17.706Z,9.40
2018-08-24T00:24:45.933Z,9.33
2018-08-24T00:27:14.182Z,10.30
2018-08-24T00:29:42.369Z,10.93
2018-08-24T00:32:10.578Z,8.90
2018-08-24T00:34:38.805Z,10.55
2018-08-24T00:37:07.030Z,10.30
2018-08-24T00:39:35.238Z,9.58
2018-08-24T00:42:03.477Z,10.38
2018-08-24T00:44:31.666Z,9.40
2018-08-24T00:46:59.870Z,9.43
2018-08-24T00:49:28.077Z,9.68
2018-08-24T00:51:56.286Z,9.70
2018-08-24T00:54:24.533Z,9.00
2018-08-24T00:56:52.753Z,9.78
2018-08-24T00:59:20.966Z,9.55
2018-08-24T01:01:49.170Z,8.87
2018-08-24T01:04:21.602Z,9.28
2018-08-24T01:06:49.803Z,8.58
2018-08-24T01:09:18.010Z,8.65
2018-08-24T01:11:51.496Z,9.60
2018-08-24T01:14:19.721Z,9.23
2018-08-24T01:16:53.274Z,8.10
2018-08-24T01:19:21.517Z,8.20
2018-08-24T01:21:49.746Z,8.40
2018-08-24T01:24:17.958Z,8.00
2018-08-24T01:26:51.610Z,8.27
2018-08-24T01:29:19.774Z,8.10
2018-08-24T01:31:47.949Z,8.30
2018-08-24T01:34:16.128Z,8.28
2018-08-24T01:36:44.313Z,8.98
2018-08-24T01:39:12.498Z,8.45
2018-08-24T01:41:40.658Z,8.40
2018-08-24T01:44:08.842Z,8.57
2018-08-24T01:46:37.013Z,8.40
2018-08-24T01:49:05.213Z,8.63
2018-08-24T01:51:33.394Z,8.83
2018-08-24T01:54:01.610Z,9.25
2018-08-24T01:56:29.724Z,9.50
2018-08-24T01:58:57.952Z,9.73
2018-08-24T02:01:26.109Z,9.70
2018-08-24T02:03:54.273Z,9.30
2018-08-24T02:06:22.457Z,10.03
2018-08-24T02:08:50.645Z,9.20
2018-08-24T02:11:31.041Z,10.23
2018-08-24T02:14:04.760Z,9.70
2018-08-24T02:16:33.865Z,10.50
2018-08-24T02:19:07.469Z,9.43
2018-08-24T02:21:41.158Z,9.53
2018-08-24T02:24:10.200Z,8.58
2018-08-24T02:26:38.446Z,8.73
2018-08-24T02:29:06.673Z,8.50
2018-08-24T02:31:50.403Z,8.00
2018-08-24T02:34:18.616Z,8.40
2018-08-24T02:36:46.795Z,8.68
2018-08-24T02:39:18.899Z,7.60
2018-08-24T02:41:47.077Z,7.95
2018-08-24T02:44:15.257Z,8.50
2018-08-24T02:46:44.249Z,7.90
2018-08-24T02:49:12.636Z,7.90
2018-08-24T02:51:40.815Z,7.90
2018-08-24T02:54:09.010Z,8.45
2018-08-24T02:56:37.210Z,8.23
2018-08-24T02:59:05.413Z,8.58
2018-08-24T03:01:33.618Z,8.43
2018-08-24T03:04:01.818Z,8.50
2018-08-24T03:06:30.098Z,8.03
2018-08-24T03:08:58.299Z,8.33
2018-08-24T03:11:26.481Z,8.25
2018-08-24T03:13:54.654Z,8.15
2018-08-24T03:16:22.878Z,7.97
2018-08-24T03:18:51.052Z,7.92
2018-08-24T03:21:19.358Z,8.28
2018-08-24T03:23:47.650Z,8.03
2018-08-24T03:26:15.939Z,8.80
2018-08-24T03:28:44.133Z,8.03
2018-08-24T03:31:12.314Z,8.25
2018-08-24T03:33:40.488Z,8.80
2018-08-24T03:36:08.668Z,8.10
2018-08-24T03:38:36.869Z,8.45
2018-08-24T03:41:05.045Z,8.10
2018-08-24T03:43:33.217Z,7.87
2018-08-24T03:46:01.548Z,8.20
2018-08-24T03:48:29.602Z,9.20
2018-08-24T03:50:57.841Z,8.50
2018-08-24T03:53:26.006Z,8.33
2018-08-24T03:55:54.185Z,8.83
2018-08-24T03:58:22.345Z,9.60
2018-08-24T04:00:54.138Z,9.33
2018-08-24T04:03:22.318Z,9.73
2018-08-24T04:05:50.510Z,9.55
2018-08-24T04:08:18.713Z,9.20
2018-08-24T04:10:46.881Z,10.30
2018-08-24T04:13:15.082Z,9.80
2018-08-24T04:15:43.265Z,9.95
2018-08-24T04:18:11.449Z,9.65
2018-08-24T04:20:39.658Z,9.43
2018-08-24T04:23:07.853Z,9.40
2018-08-24T04:25:36.073Z,9.80
2018-08-24T04:28:04.225Z,9.35
2018-08-24T04:30:32.405Z,9.93
2018-08-24T04:33:00.601Z,10.13
2018-08-24T04:35:28.782Z,8.28
2018-08-24T04:37:56.962Z,8.50
2018-08-24T04:40:25.249Z,9.08
2018-08-24T04:42:53.333Z,8.70
2018-08-24T04:45:21.539Z,8.30
2018-08-24T04:47:49.697Z,9.43
2018-08-24T04:50:17.854Z,7.92
2018-08-24T04:52:46.043Z,7.80
2018-08-24T04:55:14.224Z,8.70
2018-08-24T04:57:42.393Z,8.13
2018-08-24T05:00:10.669Z,7.47
2018-08-24T05:02:38.849Z,7.45
2018-08-24T05:05:07.369Z,7.90
2018-08-24T05:07:35.545Z,7.90
2018-08-24T05:10:03.743Z,7.50
2018-08-24T05:12:31.904Z,7.70
2018-08-24T05:15:00.068Z,7.90
2018-08-24T05:17:28.301Z,7.60
2018-08-24T05:19:56.482Z,7.40
2018-08-24T05:22:24.661Z,7.37
2018-08-24T05:24:52.846Z,8.20
2018-08-24T05:27:20.977Z,7.00
2018-08-24T05:29:49.174Z,7.30
2018-08-24T05:32:17.445Z,6.92
2018-08-24T05:34:45.601Z,7.20
2018-08-24T05:37:13.792Z,6.33
2018-08-24T05:39:41.968Z,6.33
2018-08-24T05:42:10.176Z,7.28
2018-08-24T05:44:38.359Z,6.83
2018-08-24T05:47:06.554Z,6.80
2018-08-24T05:49:34.728Z,6.60
2018-08-24T05:52:02.897Z,6.15
2018-08-24T05:54:31.082Z,6.80
2018-08-24T05:56:59.249Z,6.60
2018-08-24T05:59:27.404Z,6.53
2018-08-24T06:01:55.885Z,6.47
2018-08-24T06:04:24.048Z,7.25
2018-08-24T06:06:52.240Z,6.50
2018-08-24T06:09:20.417Z,6.50
2018-08-24T06:11:55.213Z,6.25
2018-08-24T06:14:23.396Z,5.60
2018-08-24T06:16:56.845Z,5.78
2018-08-24T06:19:25.010Z,5.95
2018-08-24T06:21:53.169Z,5.50
2018-08-24T06:24:21.395Z,5.45
2018-08-24T06:26:49.617Z,5.20
2018-08-24T06:29:17.817Z,5.08
2018-08-24T06:31:45.997Z,4.70
2018-08-24T06:34:14.182Z,5.12
2018-08-24T06:36:42.358Z,5.00
2018-08-24T06:39:12.604Z,5.10
2018-08-24T06:41:40.875Z,4.90
2018-08-24T06:44:09.009Z,5.50
2018-08-24T06:46:37.194Z,5.03
2018-08-24T06:49:05.466Z,5.30
2018-08-24T06:51:33.634Z,4.50
2018-08-24T06:54:01.884Z,4.60
2018-08-24T06:56:29.946Z,4.77
2018-08-24T06:58:58.118Z,4.53
2018-08-24T07:01:26.277Z,4.20
2018-08-24T07:03:54.442Z,4.63
2018-08-24T07:06:22.616Z,4.60
2018-08-24T07:08:50.773Z,4.20
2018-08-24T07:11:18.942Z,4.70
2018-08-24T07:13:49.058Z,3.90
2018-08-24T07:16:17.245Z,4.53
2018-08-24T07:18:45.419Z,4.77
2018-08-24T07:21:13.697Z,4.47
2018-08-24T07:23:41.874Z,4.30
2018-08-24T07:26:10.041Z,3.70
2018-08-24T07:28:38.280Z,4.43
2018-08-24T07:31:06.453Z,4.33
2018-08-24T07:33:34.616Z,4.73
2018-08-24T07:36:02.806Z,4.60
2018-08-24T07:38:30.976Z,4.10
2018-08-24T07:40:59.145Z,3.50
2018-08-24T07:43:27.333Z,4.70
2018-08-24T07:45:55.494Z,4.67
2018-08-24T07:48:23.718Z,4.40
2018-08-24T07:50:51.940Z,4.13
2018-08-24T07:53:20.098Z,4.50
2018-08-24T07:55:48.264Z,5.30
2018-08-24T07:58:16.450Z,3.60
2018-08-24T08:00:44.614Z,4.60
2018-08-24T08:03:12.786Z,4.63
2018-08-24T08:05:40.981Z,4.60
2018-08-24T08:08:09.141Z,5.40
2018-08-24T08:10:39.905Z,5.30
2018-08-24T08:13:09.369Z,4.50
2018-08-24T08:15:37.529Z,4.80
2018-08-24T08:18:05.804Z,5.03
2018-08-24T08:20:33.929Z,4.60
2018-08-24T08:23:02.084Z,4.80
2018-08-24T08:25:30.262Z,3.87
2018-08-24T08:27:58.407Z,3.93
2018-08-24T08:30:26.573Z,4.53
2018-08-24T08:32:54.736Z,5.30
2018-08-24T08:35:22.949Z,4.07
2018-08-24T08:37:51.106Z,4.20
2018-08-24T08:40:19.277Z,5.17
2018-08-24T08:42:47.434Z,3.93
2018-08-24T08:45:15.604Z,4.90
2018-08-24T08:47:43.766Z,5.07
2018-08-24T08:50:11.941Z,3.70
2018-08-24T08:52:40.115Z,3.87
2018-08-24T08:55:08.289Z,4.30
2018-08-24T08:57:36.473Z,4.73
2018-08-24T09:00:04.825Z,4.37
2018-08-24T09:02:33.002Z,5.00
2018-08-24T09:05:01.193Z,4.70
2018-08-24T09:07:29.359Z,4.07
2018-08-24T09:09:57.537Z,4.00
2018-08-24T09:12:25.706Z,5.20
2018-08-24T09:14:53.890Z,6.10
2018-08-24T09:17:27.507Z,5.23
2018-08-24T09:20:01.007Z,4.57
2018-08-24T09:22:34.614Z,5.07
2018-08-24T09:42:35.754Z,5.50
2018-08-24T09:45:04.326Z,7.40
2018-08-24T09:47:37.917Z,7.40
2018-08-24T09:50:12.220Z,8.10
2018-08-24T09:52:40.833Z,7.80
2018-08-24T09:55:09.225Z,7.80
2018-08-24T09:57:37.409Z,8.35
2018-08-24T10:00:05.927Z,7.50
2018-08-24T10:02:39.566Z,7.90
2018-08-24T10:05:12.969Z,7.58
2018-08-24T10:07:44.732Z,7.40
2018-08-24T10:10:12.916Z,7.73
2018-08-24T10:12:41.082Z,7.55
2018-08-24T10:15:09.661Z,8.63
2018-08-24T10:17:37.826Z,8.10
2018-08-24T10:20:06.606Z,8.50
2018-08-24T10:22:34.793Z,8.40
2018-08-24T10:25:03.197Z,8.75
2018-08-24T10:27:31.667Z,7.80
2018-08-24T10:29:59.847Z,8.10
2018-08-24T10:32:28.042Z,8.83
2018-08-24T10:34:56.210Z,8.35
2018-08-24T11:56:03.990Z,10.40
2018-08-24T11:58:32.177Z,10.43
2018-08-24T12:01:00.361Z,10.00
2018-08-24T12:03:28.573Z,9.35
2018-08-24T12:05:56.754Z,9.70
2018-08-24T12:08:25.018Z,8.80
2018-08-24T12:10:53.160Z,8.28
2018-08-24T12:13:21.350Z,9.08
2018-08-24T12:15:49.522Z,8.43
2018-08-24T12:18:17.734Z,8.70
2018-08-24T12:20:45.904Z,9.25
2018-08-24T12:23:14.093Z,9.15
2018-08-24T12:25:42.277Z,8.67
2018-08-24T12:28:10.457Z,8.55
2018-08-24T12:30:38.657Z,8.10
2018-08-24T12:33:06.862Z,8.10
2018-08-24T12:35:35.056Z,7.50
2018-08-24T12:38:03.252Z,8.98
2018-08-24T12:40:31.417Z,9.63
2018-08-24T12:42:59.613Z,10.15
2018-08-24T12:45:27.804Z,10.43
2018-08-24T12:47:55.985Z,11.10
2018-08-24T12:50:24.185Z,11.15
2018-08-24T12:52:52.381Z,10.90
2018-08-24T12:55:20.554Z,10.65
2018-08-24T12:57:48.741Z,10.50
2018-08-24T13:00:16.926Z,10.40
2018-08-24T13:02:45.143Z,10.72
2018-08-24T13:05:13.327Z,10.90
2018-08-24T13:07:41.514Z,11.00
2018-08-24T13:10:09.698Z,11.97
2018-08-24T13:12:37.877Z,11.20
2018-08-24T13:15:06.164Z,12.30
2018-08-24T13:17:34.261Z,12.75
2018-08-24T13:20:02.445Z,12.07
2018-08-24T13:22:30.621Z,12.00
2018-08-24T13:24:58.805Z,12.00
2018-08-24T13:27:27.099Z,13.03
2018-08-24T13:29:55.181Z,12.68
2018-08-24T13:32:23.364Z,11.80
2018-08-24T13:34:51.525Z,12.18
2018-08-24T13:37:19.744Z,11.90
2018-08-24T13:39:47.944Z,12.13
2018-08-24T13:42:16.115Z,11.68
2018-08-24T13:44:44.299Z,10.70
2018-08-24T13:47:12.492Z,10.58
2018-08-24T13:49:40.694Z,10.85
2018-08-24T13:52:08.867Z,10.18
2018-08-24T13:54:37.079Z,9.85
2018-08-24T13:57:05.217Z,10.68
2018-08-24T13:59:33.462Z,10.40
2018-08-24T14:02:01.661Z,10.60
2018-08-24T14:04:29.849Z,11.20
2018-08-24T14:06:58.019Z,7.60
2018-08-24T14:09:26.222Z,5.30
2018-08-24T14:11:54.390Z,5.70
2018-08-24T14:14:22.582Z,5.03
2018-08-24T14:16:50.749Z,6.28
2018-08-24T14:19:18.969Z,4.90
2018-08-24T14:21:47.156Z,5.97
2018-08-24T14:24:15.338Z,5.90
2018-08-24T14:26:43.583Z,5.93
2018-08-24T14:29:11.697Z,5.62
2018-08-24T14:31:39.968Z,5.90
2018-08-24T14:34:08.074Z,5.40
2018-08-24T14:36:36.237Z,5.87
2018-08-24T14:48:55.099Z,5.35
2018-08-24T14:51:23.281Z,5.27
2018-08-24T14:53:51.472Z,5.05
2018-08-24T14:56:19.652Z,5.22
2018-08-24T14:58:47.849Z,4.75
2018-08-24T15:01:16.021Z,5.10
2018-08-24T15:03:44.207Z,4.90
2018-08-24T15:06:12.389Z,4.90
2018-08-24T15:08:40.589Z,5.10
2018-08-24T15:11:08.842Z,4.40
2018-08-24T15:13:37.022Z,4.80
2018-08-24T15:16:05.214Z,4.60
2018-08-24T15:18:33.405Z,4.70
2018-08-24T15:21:01.586Z,4.75
2018-08-24T15:23:29.802Z,4.20
2018-08-24T15:25:57.990Z,4.83
2018-08-24T15:28:26.164Z,4.22
2018-08-24T15:30:54.323Z,4.73
2018-08-24T15:33:22.509Z,4.70
2018-08-24T15:35:50.693Z,5.42
2018-08-24T15:38:18.854Z,4.90
2018-08-24T15:40:47.033Z,5.07
2018-08-24T15:43:15.201Z,4.95
2018-08-24T15:45:43.390Z,4.80
2018-08-24T15:48:11.562Z,5.30
2018-08-24T15:50:39.785Z,5.30
2018-08-24T15:53:07.954Z,5.87
2018-08-24T15:55:36.122Z,5.78
2018-08-24T15:58:04.301Z,4.85
2018-08-24T16:00:32.487Z,5.00
2018-08-24T16:03:00.645Z,5.83
2018-08-24T16:05:28.838Z,5.30
2018-08-24T16:07:56.985Z,5.30
2018-08-24T16:10:25.172Z,5.90
2018-08-24T16:12:53.362Z,5.22
2018-08-24T16:15:21.537Z,5.33
2018-08-24T16:17:55.147Z,5.57
2018-08-24T16:20:23.309Z,5.55
2018-08-24T16:22:51.485Z,5.70
2018-08-24T16:25:19.684Z,5.45
2018-08-24T16:27:47.890Z,6.28
2018-08-24T16:30:16.096Z,6.10
2018-08-24T16:32:44.264Z,6.15
2018-08-24T16:35:12.418Z,6.50
2018-08-24T16:37:40.577Z,7.00
2018-08-24T16:40:09.231Z,6.90
2018-08-24T16:42:37.401Z,6.67
2018-08-24T16:45:05.573Z,6.72
2018-08-24T16:47:33.782Z,6.85
2018-08-24T16:50:01.977Z,7.53
2018-08-24T16:52:30.179Z,6.83
2018-08-24T16:54:58.559Z,7.60
2018-08-24T16:57:26.737Z,7.47
2018-08-24T16:59:54.901Z,7.83
2018-08-24T17:02:23.121Z,7.97
2018-08-24T17:04:51.309Z,8.30
2018-08-24T17:07:19.498Z,8.40
2018-08-24T17:09:47.677Z,8.63
2018-08-24T17:12:15.861Z,8.30
2018-08-24T17:14:44.049Z,9.53
2018-08-24T17:17:12.297Z,9.40
2018-08-24T17:19:40.464Z,9.18
2018-08-24T17:22:08.702Z,9.20
2018-08-24T17:24:36.877Z,9.50
2018-08-24T17:27:05.339Z,9.73
2018-08-24T17:29:33.510Z,9.70
2018-08-24T17:32:01.718Z,10.90
2018-08-24T17:34:29.897Z,10.50
2018-08-24T17:36:58.077Z,11.38
2018-08-24T17:39:26.262Z,10.60
2018-08-24T17:41:54.479Z,10.30
2018-08-24T17:44:22.626Z,10.50
2018-08-24T17:46:50.838Z,10.60
2018-08-24T17:49:19.039Z,11.22
2018-08-24T17:51:47.221Z,10.50
2018-08-24T17:54:15.427Z,10.67
2018-08-24T17:56:43.608Z,11.50
2018-08-24T17:59:11.933Z,11.00
2018-08-24T18:01:40.134Z,10.28
2018-08-24T18:04:08.325Z,10.48
2018-08-24T18:06:36.527Z,10.18
2018-08-24T18:09:07.621Z,10.30
2018-08-24T18:16:24.142Z,11.35
2018-08-24T18:18:52.337Z,10.82
2018-08-24T18:21:20.540Z,11.50
2018-08-24T18:23:48.722Z,11.00
2018-08-24T18:26:16.913Z,11.40
2018-08-24T18:28:45.098Z,11.50
2018-08-24T18:31:13.277Z,11.03
2018-08-24T18:33:41.468Z,10.38
2018-08-24T18:36:09.665Z,10.10
2018-08-24T18:38:37.829Z,11.15
2018-08-24T18:41:06.082Z,10.77
2018-08-24T18:43:34.260Z,11.10
2018-08-24T18:46:02.628Z,11.20
2018-08-24T18:48:30.846Z,11.10
2018-08-24T18:50:59.002Z,10.82
2018-08-24T18:53:27.205Z,10.68
2018-08-24T18:55:55.405Z,10.55
2018-08-24T18:58:23.785Z,11.10
2018-08-24T19:00:51.959Z,10.18
2018-08-24T19:03:20.134Z,11.40
2018-08-24T19:05:48.306Z,9.57
2018-08-24T19:08:16.494Z,10.73
2018-08-24T19:10:49.931Z,9.63
2018-08-24T19:20:52.857Z,10.70
2018-08-24T19:23:20.965Z,9.03
2018-08-24T19:25:49.357Z,9.30
2018-08-24T19:28:22.877Z,9.17
2018-08-24T19:30:51.046Z,10.87
2018-08-24T19:33:19.308Z,10.40
2018-08-24T19:35:47.465Z,8.77
2018-08-24T19:38:15.637Z,8.57
2018-08-24T19:40:49.167Z,9.70
2018-08-24T19:43:17.342Z,10.60
2018-08-24T19:45:45.517Z,11.47
2018-08-24T19:48:19.252Z,10.40
2018-08-24T19:50:47.390Z,10.60
2018-08-24T19:53:15.574Z,9.83
2018-08-24T19:55:43.773Z,9.57
2018-08-24T19:58:17.396Z,10.60
2018-08-24T20:00:45.582Z,9.63
2018-08-24T20:03:13.735Z,10.17
2018-08-24T20:05:44.809Z,10.00
2018-08-24T20:08:18.564Z,10.23
2018-08-24T20:10:46.745Z,10.57
2018-08-24T20:13:14.953Z,10.87
2018-08-24T20:15:48.614Z,8.97
2018-08-24T20:18:16.795Z,9.67
2018-08-24T20:20:44.957Z,9.73
2018-08-24T20:23:13.121Z,9.77
2018-08-24T20:25:41.374Z,9.97
2018-08-24T20:28:09.538Z,9.83
2018-08-24T20:30:37.715Z,10.00
2018-08-24T20:33:05.874Z,9.20
2018-08-24T20:35:34.054Z,10.13
2018-08-24T20:38:02.217Z,10.67
2018-08-24T20:40:30.391Z,9.60
2018-08-24T20:42:58.586Z,10.80
2018-08-24T20:45:26.745Z,9.30
2018-08-24T20:47:54.931Z,10.27
2018-08-24T20:50:23.104Z,9.93
2018-08-24T20:52:51.271Z,9.50
2018-08-24T20:55:19.485Z,8.90
2018-08-24T20:57:47.610Z,10.60
2018-08-24T21:00:15.798Z,9.73
2018-08-24T21:02:43.970Z,10.57
2018-08-24T21:05:12.148Z,9.30
2018-08-24T21:07:40.314Z,10.30
2018-08-24T21:10:08.476Z,9.77
2018-08-24T21:12:36.653Z,8.63
2018-08-24T21:15:04.873Z,9.17
2018-08-24T21:17:33.018Z,9.73
2018-08-24T21:20:01.211Z,10.27
2018-08-24T21:22:29.369Z,9.80
2018-08-24T21:24:57.538Z,8.93
2018-08-24T21:27:25.714Z,9.70
2018-08-24T21:29:53.880Z,9.10
2018-08-24T21:32:22.037Z,10.33
2018-08-24T21:34:50.209Z,8.50
2018-08-24T21:37:18.377Z,10.23
2018-08-24T21:39:46.537Z,9.73
2018-08-24T21:42:14.693Z,9.90
2018-08-24T21:44:42.869Z,9.63
2018-08-24T21:47:11.029Z,10.27
2018-08-24T21:49:39.206Z,9.87
2018-08-24T21:52:07.370Z,10.20
2018-08-24T21:54:35.542Z,9.80
2018-08-24T21:57:03.704Z,10.00
2018-08-24T21:59:31.877Z,9.53
2018-08-24T22:02:00.062Z,10.30
2018-08-24T22:04:28.513Z,8.47
2018-08-24T22:06:56.685Z,9.33
2018-08-24T22:09:24.842Z,8.53
2018-08-24T22:11:53.014Z,9.00
2018-08-24T22:14:21.181Z,8.87
2018-08-24T22:16:49.352Z,8.77
2018-08-24T22:19:17.502Z,8.80
2018-08-24T22:21:45.661Z,8.70
2018-08-24T22:24:13.829Z,9.50
2018-08-24T22:26:42.010Z,9.80
2018-08-24T22:29:10.177Z,9.33
2018-08-24T22:31:38.352Z,9.40
2018-08-24T22:34:06.561Z,9.50
2018-08-24T22:36:34.744Z,9.00
2018-08-24T22:39:03.405Z,9.00
2018-08-24T22:41:31.577Z,9.60
2018-08-24T22:43:59.741Z,8.70
2018-08-24T22:46:27.913Z,8.70
2018-08-24T22:48:56.077Z,10.63
2018-08-24T22:51:24.261Z,9.03
2018-08-24T22:53:52.434Z,11.37
2018-08-24T22:56:20.610Z,10.37
2018-08-24T22:58:48.801Z,10.63
2018-08-24T23:01:16.977Z,10.27
2018-08-24T23:03:45.143Z,8.90
2018-08-24T23:06:13.313Z,9.80
2018-08-24T23:08:41.482Z,10.10
2018-08-24T23:11:09.662Z,10.10
2018-08-24T23:13:37.826Z,10.00
2018-08-24T23:16:06.026Z,8.60
2018-08-24T23:18:34.180Z,9.70
2018-08-24T23:21:02.365Z,10.80
2018-08-24T23:23:30.511Z,9.90
2018-08-24T23:25:58.681Z,9.30
2018-08-24T23:28:26.845Z,9.50
2018-08-24T23:30:55.017Z,10.67
2018-08-24T23:33:23.181Z,9.93
2018-08-24T23:35:51.340Z,9.57
2018-08-24T23:38:19.514Z,10.63
2018-08-24T23:40:47.678Z,11.30
2018-08-24T23:43:15.846Z,10.43
2018-08-24T23:45:44.016Z,9.53
2018-08-24T23:48:12.174Z,9.80
2018-08-24T23:50:40.364Z,9.30
2018-08-24T23:53:08.530Z,8.73
2018-08-24T23:55:36.715Z,9.23
2018-08-24T23:58:04.858Z,9.30
